WetterOnline ( https://www.wetteronline.de )

Wetter aktuell Munster

Aktuelles Wetter: Soltau (76m)

6-stündlich | Neueste Meldungen
Ortszeit Temperatur Wetter
Mo, 20.05. 20:00 19.1° C bewölkt
Mo, 20.05. 14:00 21.8° C leicht bewölkt
Mo, 20.05. 8:00 12.1° C bedeckt
Mo, 20.05. 2:00 14.2° C leicht bewölkt
So, 19.05. 20:00 18.0° C bewölkt
So, 19.05. 14:00 21.5° C bewölkt
So, 19.05. 8:00 13.7° C bewölkt
So, 19.05. 2:00 9.4° C leicht bewölkt
Ortszeit Temperatur Wetter
Mo, 20.05. 23:30 17.8° C wolkig
Mo, 20.05. 23:20 17.8° C wolkig
Mo, 20.05. 23:10 17.8° C wolkig
Mo, 20.05. 23:00 17.7° C bewölkt
Mo, 20.05. 22:50 17.7° C bewölkt
Mo, 20.05. 22:40 17.8° C bewölkt
Mo, 20.05. 22:30 17.9° C bewölkt
Mo, 20.05. 22:00 18.2° C wolkig
Mo, 20.05. 21:30 18.4° C bewölkt
Mo, 20.05. 21:00 18.5° C wolkig
Mo, 20.05. 20:30 18.6° C wolkig
Ortszeit Relative Feuchte Sichtweite
Mo, 20.05. 20:00 73% 30 km
Mo, 20.05. 14:00 61% 35 km
Mo, 20.05. 8:00 97% 1.2 km
Mo, 20.05. 2:00 91% 13 km
So, 19.05. 20:00 76% 30 km
So, 19.05. 14:00 48% 40 km
So, 19.05. 8:00 84% 12 km
So, 19.05. 2:00 88% 28 km
Ortszeit Relative Feuchte Sichtweite
Mo, 20.05. 23:30 79% 30 km
Mo, 20.05. 23:20 79% -
Mo, 20.05. 23:10 78% -
Mo, 20.05. 23:00 79% 30 km
Mo, 20.05. 22:50 79% -
Mo, 20.05. 22:40 79% -
Mo, 20.05. 22:30 78% 30 km
Mo, 20.05. 22:00 77% 30 km
Mo, 20.05. 21:30 76% 30 km
Mo, 20.05. 21:00 76% 26 km
Mo, 20.05. 20:30 75% 25 km
Ortszeit Niederschlagsmenge Niederschlagsart
Mo, 20.05. 20:00 0.0 l/m2 in 12 Std. -
Mo, 20.05. 14:00 0.0 l/m2 in 6 Std. -
Mo, 20.05. 8:00 0.1 l/m2 in 12 Std. -
Mo, 20.05. 2:00 0.1 l/m2 in 6 Std. Regen
So, 19.05. 20:00 1 l/m2 in 12 Std. Regen
So, 19.05. 14:00 0.0 l/m2 in 6 Std. -
So, 19.05. 8:00 0.0 l/m2 in 12 Std. -
So, 19.05. 2:00 0.0 l/m2 in 6 Std. -
Ortszeit Niederschlagsmenge Niederschlagsart
Mo, 20.05. 23:30 0.0 l/m2 in 1 Std. -
Mo, 20.05. 23:20 keine Meldung -
Mo, 20.05. 23:10 keine Meldung -
Mo, 20.05. 23:00 0.0 l/m2 in 1 Std. -
Mo, 20.05. 22:50 keine Meldung -
Mo, 20.05. 22:40 keine Meldung -
Mo, 20.05. 22:30 0.0 l/m2 in 1 Std. -
Mo, 20.05. 22:00 0.0 l/m2 in 1 Std. -
Mo, 20.05. 21:30 0.0 l/m2 in 1 Std. -
Mo, 20.05. 21:00 0.0 l/m2 in 1 Std. -
Mo, 20.05. 20:30 0.0 l/m2 in 1 Std. -
Ortszeit Stärke Spitze Richtung
km/h Bft. km/h Grad Sektor
Mo, 20.05. 20:00 14 3 36 20° N
Mo, 20.05. 14:00 11 2 25 40° NO
Mo, 20.05. 8:00 11 2 18 50° NO
Mo, 20.05. 2:00 7 2 22 40° NO
So, 19.05. 20:00 11 2 36 10° N
So, 19.05. 14:00 9 2 30 80° O
So, 19.05. 8:00 7 2 11 60° NO
So, 19.05. 2:00 0 0 14 - -
Ortszeit Stärke Spitze Richtung
km/h Bft. km/h Grad Sektor
Mo, 20.05. 23:30 13 3 24 360° N
Mo, 20.05. 23:20 13 3 - 360° N
Mo, 20.05. 23:10 15 3 - 360° N
Mo, 20.05. 23:00 11 2 26 10° N
Mo, 20.05. 22:50 11 2 - 10° N
Mo, 20.05. 22:40 11 2 - 360° N
Mo, 20.05. 22:30 14 3 25 350° N
Mo, 20.05. 22:00 14 3 36 10° N
Mo, 20.05. 21:30 14 3 25 10° N
Mo, 20.05. 21:00 14 3 32 360° N
Mo, 20.05. 20:30 18 3 32 360° N
Ortszeit Untergrenze Bedeckung Gattung
total tief tief mittel hoch
Mo, 20.05. 20:00 660 m 8/8 5/8 - - -
Mo, 20.05. 14:00 8700 m 4/8 0/8 - - -
Mo, 20.05. 8:00 30 m 8/8 8/8 - - -
Mo, 20.05. 2:00 4200 m 2/8 2/8 - - -
So, 19.05. 20:00 2100 m 7/8 7/8 - - -
So, 19.05. 14:00 1500 m 8/8 4/8 - - -
So, 19.05. 8:00 6600 m 8/8 7/8 - - -
So, 19.05. 2:00 10500 m 6/8 0/8 - - -
Ortszeit Bedeckungsgrad in Achtel und Wolkenuntergrenze
Mo, 20.05. 23:30 1(780m) 8(3600m) 8(4200m)
Mo, 20.05. 23:20 1(780m) 8(3600m) 8(4200m)
Mo, 20.05. 23:10 1(690m) 7(3600m) 8(4200m)
Mo, 20.05. 23:00 5(690m) 7(4200m) 8(5700m)
Mo, 20.05. 22:50 5(690m) 7(4200m) 8(5700m)
Mo, 20.05. 22:40 6(690m) 7(4200m) 8(7500m)
Mo, 20.05. 22:30 6(750m) 7(2700m) 8(7500m)
Mo, 20.05. 22:00 3(750m) 8(3300m) 8(3600m)
Mo, 20.05. 21:30 4(720m) 7(3600m) 8(4200m)
Mo, 20.05. 21:00 1(600m) 8(3600m) 8(5700m)
Mo, 20.05. 20:30 2(630m) 7(4500m) 7(8700m)
Ortszeit Luftdruck NN (hPa) Tendenz (hPa in 3 Std.)
Mo, 20.05. 20:00 1005 + 1,0
Mo, 20.05. 14:00 1005 - 0,6
Mo, 20.05. 8:00 1005 + 0,3
Mo, 20.05. 2:00 1005 - 0,3
So, 19.05. 20:00 1004 - 0,4
So, 19.05. 14:00 1005 - 1,1
So, 19.05. 8:00 1007 + 0,3
So, 19.05. 2:00 1007 - 0,1
Ortszeit Luftdruck NN (hPa) Tendenz (hPa in 3 Std.)
Mo, 20.05. 23:30 1005 + 0,2
Mo, 20.05. 23:20 1005 keine Meldung
Mo, 20.05. 23:10 1004 keine Meldung
Mo, 20.05. 23:00 1005 - 0,1
Mo, 20.05. 22:50 1005 keine Meldung
Mo, 20.05. 22:40 1005 keine Meldung
Mo, 20.05. 22:30 1004 + 0,1
Mo, 20.05. 22:00 1005 + 0,7
Mo, 20.05. 21:30 1005 + 0,9
Mo, 20.05. 21:00 1005 + 1,2
Mo, 20.05. 20:30 1004 + 0,6
Ortszeit Schneehöhe (cm)
Mo, 20.05. 20:00 -
Mo, 20.05. 14:00 -
Mo, 20.05. 8:00 -
Mo, 20.05. 2:00 -
So, 19.05. 20:00 -
So, 19.05. 14:00 -
So, 19.05. 8:00 -
So, 19.05. 2:00 -
Ortszeit Schneehöhe (cm)
Mo, 20.05. 23:30 -
Mo, 20.05. 23:20 -
Mo, 20.05. 23:10 -
Mo, 20.05. 23:00 -
Mo, 20.05. 22:50 -
Mo, 20.05. 22:40 -
Mo, 20.05. 22:30 -
Mo, 20.05. 22:00 -
Mo, 20.05. 21:30 -
Mo, 20.05. 21:00 -
Mo, 20.05. 20:30 -
Link zu dieser Seite / Seite empfehlen

Das Wetter in ...